sensor_id;sensor_type;location;lat;lon;timestamp;P1;durP1;ratioP1;P2;durP2;ratioP2
18042;SDS011;9146;48.074;11.968;2023-07-29T00:01:47;8.97;;;5.80;;
18042;SDS011;9146;48.074;11.968;2023-07-29T00:04:14;5.23;;;4.60;;
18042;SDS011;9146;48.074;11.968;2023-07-29T00:06:41;6.80;;;4.33;;
18042;SDS011;9146;48.074;11.968;2023-07-29T00:09:08;4.83;;;4.23;;
18042;SDS011;9146;48.074;11.968;2023-07-29T00:11:36;4.47;;;3.97;;
18042;SDS011;9146;48.074;11.968;2023-07-29T00:14:03;5.20;;;3.70;;
18042;SDS011;9146;48.074;11.968;2023-07-29T00:16:30;4.93;;;3.47;;
18042;SDS011;9146;48.074;11.968;2023-07-29T00:18:57;3.27;;;2.70;;
18042;SDS011;9146;48.074;11.968;2023-07-29T00:21:25;4.17;;;3.77;;
18042;SDS011;9146;48.074;11.968;2023-07-29T00:23:52;3.57;;;3.13;;
18042;SDS011;9146;48.074;11.968;2023-07-29T00:26:19;4.20;;;3.30;;
18042;SDS011;9146;48.074;11.968;2023-07-29T00:28:48;3.77;;;3.47;;
18042;SDS011;9146;48.074;11.968;2023-07-29T00:31:15;3.33;;;3.03;;
18042;SDS011;9146;48.074;11.968;2023-07-29T00:33:42;3.40;;;3.10;;
18042;SDS011;9146;48.074;11.968;2023-07-29T00:36:09;3.70;;;3.40;;
18042;SDS011;9146;48.074;11.968;2023-07-29T00:38:35;3.30;;;3.00;;
18042;SDS011;9146;48.074;11.968;2023-07-29T00:41:02;5.00;;;4.30;;
18042;SDS011;9146;48.074;11.968;2023-07-29T00:43:30;5.67;;;4.60;;
18042;SDS011;9146;48.074;11.968;2023-07-29T00:45:58;4.20;;;3.80;;
18042;SDS011;9146;48.074;11.968;2023-07-29T00:48:26;5.20;;;4.00;;
18042;SDS011;9146;48.074;11.968;2023-07-29T00:50:53;4.43;;;4.00;;
18042;SDS011;9146;48.074;11.968;2023-07-29T00:53:20;7.57;;;4.97;;
18042;SDS011;9146;48.074;11.968;2023-07-29T00:55:47;6.63;;;4.60;;
18042;SDS011;9146;48.074;11.968;2023-07-29T00:58:15;4.80;;;4.30;;
18042;SDS011;9146;48.074;11.968;2023-07-29T01:00:41;9.13;;;5.50;;
18042;SDS011;9146;48.074;11.968;2023-07-29T01:03:10;5.33;;;4.80;;
18042;SDS011;9146;48.074;11.968;2023-07-29T01:05:39;8.63;;;4.77;;
18042;SDS011;9146;48.074;11.968;2023-07-29T01:08:36;5.07;;;4.57;;
18042;SDS011;9146;48.074;11.968;2023-07-29T01:11:16;5.50;;;4.03;;
18042;SDS011;9146;48.074;11.968;2023-07-29T01:13:58;5.20;;;3.70;;
18042;SDS011;9146;48.074;11.968;2023-07-29T01:16:30;4.70;;;3.87;;
18042;SDS011;9146;48.074;11.968;2023-07-29T01:19:04;3.40;;;3.10;;
18042;SDS011;9146;48.074;11.968;2023-07-29T01:21:33;4.73;;;4.27;;
18042;SDS011;9146;48.074;11.968;2023-07-29T01:24:03;3.93;;;3.47;;
18042;SDS011;9146;48.074;11.968;2023-07-29T01:26:31;4.60;;;3.80;;
18042;SDS011;9146;48.074;11.968;2023-07-29T01:28:58;5.00;;;4.30;;
18042;SDS011;9146;48.074;11.968;2023-07-29T01:31:27;5.00;;;3.77;;
18042;SDS011;9146;48.074;11.968;2023-07-29T01:33:59;4.67;;;3.90;;
18042;SDS011;9146;48.074;11.968;2023-07-29T01:36:32;3.67;;;3.27;;
18042;SDS011;9146;48.074;11.968;2023-07-29T01:39:05;3.77;;;3.37;;
18042;SDS011;9146;48.074;11.968;2023-07-29T01:41:32;4.93;;;3.30;;
18042;SDS011;9146;48.074;11.968;2023-07-29T01:44:00;4.23;;;3.67;;
18042;SDS011;9146;48.074;11.968;2023-07-29T01:46:29;3.43;;;3.10;;
18042;SDS011;9146;48.074;11.968;2023-07-29T01:48:58;3.87;;;3.17;;
18042;SDS011;9146;48.074;11.968;2023-07-29T01:51:25;4.67;;;3.60;;
18042;SDS011;9146;48.074;11.968;2023-07-29T01:53:51;4.00;;;3.70;;
18042;SDS011;9146;48.074;11.968;2023-07-29T01:56:21;4.17;;;3.77;;
18042;SDS011;9146;48.074;11.968;2023-07-29T01:58:48;4.00;;;3.47;;
18042;SDS011;9146;48.074;11.968;2023-07-29T02:01:15;5.40;;;4.00;;
18042;SDS011;9146;48.074;11.968;2023-07-29T02:03:43;6.10;;;4.30;;
18042;SDS011;9146;48.074;11.968;2023-07-29T02:06:10;5.03;;;3.70;;
18042;SDS011;9146;48.074;11.968;2023-07-29T02:08:37;5.87;;;4.17;;
18042;SDS011;9146;48.074;11.968;2023-07-29T02:11:05;6.17;;;4.97;;
18042;SDS011;9146;48.074;11.968;2023-07-29T02:13:34;5.87;;;4.00;;
18042;SDS011;9146;48.074;11.968;2023-07-29T02:16:01;3.90;;;3.60;;
18042;SDS011;9146;48.074;11.968;2023-07-29T02:18:27;3.60;;;3.30;;
18042;SDS011;9146;48.074;11.968;2023-07-29T02:20:54;4.97;;;4.40;;
18042;SDS011;9146;48.074;11.968;2023-07-29T02:23:21;6.10;;;4.77;;
18042;SDS011;9146;48.074;11.968;2023-07-29T02:25:48;4.47;;;3.30;;
18042;SDS011;9146;48.074;11.968;2023-07-29T02:28:16;4.20;;;3.40;;
18042;SDS011;9146;48.074;11.968;2023-07-29T02:30:45;4.87;;;3.07;;
18042;SDS011;9146;48.074;11.968;2023-07-29T02:33:14;3.53;;;3.17;;
18042;SDS011;9146;48.074;11.968;2023-07-29T02:35:41;4.53;;;4.00;;
18042;SDS011;9146;48.074;11.968;2023-07-29T02:38:08;4.37;;;4.00;;
18042;SDS011;9146;48.074;11.968;2023-07-29T02:40:35;6.20;;;4.37;;
18042;SDS011;9146;48.074;11.968;2023-07-29T02:43:02;4.03;;;3.37;;
18042;SDS011;9146;48.074;11.968;2023-07-29T02:45:29;3.60;;;3.30;;
18042;SDS011;9146;48.074;11.968;2023-07-29T02:47:57;3.90;;;3.50;;
18042;SDS011;9146;48.074;11.968;2023-07-29T02:50:24;5.50;;;4.10;;
18042;SDS011;9146;48.074;11.968;2023-07-29T02:52:51;4.73;;;4.20;;
18042;SDS011;9146;48.074;11.968;2023-07-29T02:55:18;4.60;;;4.00;;
18042;SDS011;9146;48.074;11.968;2023-07-29T02:57:45;4.23;;;3.80;;
18042;SDS011;9146;48.074;11.968;2023-07-29T03:00:12;4.97;;;3.73;;
18042;SDS011;9146;48.074;11.968;2023-07-29T03:02:40;4.90;;;4.40;;
18042;SDS011;9146;48.074;11.968;2023-07-29T03:05:09;5.93;;;4.83;;
18042;SDS011;9146;48.074;11.968;2023-07-29T03:07:36;7.70;;;5.60;;
18042;SDS011;9146;48.074;11.968;2023-07-29T03:10:03;5.37;;;4.37;;
18042;SDS011;9146;48.074;11.968;2023-07-29T03:12:30;6.30;;;4.60;;
18042;SDS011;9146;48.074;11.968;2023-07-29T03:14:57;4.77;;;4.03;;
18042;SDS011;9146;48.074;11.968;2023-07-29T03:17:25;4.00;;;3.70;;
18042;SDS011;9146;48.074;11.968;2023-07-29T03:19:53;6.03;;;4.50;;
18042;SDS011;9146;48.074;11.968;2023-07-29T03:22:21;6.50;;;4.20;;
18042;SDS011;9146;48.074;11.968;2023-07-29T03:24:48;6.00;;;4.40;;
18042;SDS011;9146;48.074;11.968;2023-07-29T03:27:15;6.17;;;4.23;;
18042;SDS011;9146;48.074;11.968;2023-07-29T03:29:42;8.93;;;6.10;;
18042;SDS011;9146;48.074;11.968;2023-07-29T03:32:09;10.83;;;6.73;;
18042;SDS011;9146;48.074;11.968;2023-07-29T03:34:36;5.67;;;4.60;;
18042;SDS011;9146;48.074;11.968;2023-07-29T03:37:03;6.83;;;5.50;;
18042;SDS011;9146;48.074;11.968;2023-07-29T03:39:32;6.80;;;5.10;;
18042;SDS011;9146;48.074;11.968;2023-07-29T03:41:59;7.00;;;4.93;;
18042;SDS011;9146;48.074;11.968;2023-07-29T03:44:26;6.17;;;4.63;;
18042;SDS011;9146;48.074;11.968;2023-07-29T03:46:53;4.93;;;4.00;;
18042;SDS011;9146;48.074;11.968;2023-07-29T03:49:20;9.53;;;6.00;;
18042;SDS011;9146;48.074;11.968;2023-07-29T03:51:46;8.83;;;6.20;;
18042;SDS011;9146;48.074;11.968;2023-07-29T03:54:13;10.30;;;6.90;;
18042;SDS011;9146;48.074;11.968;2023-07-29T03:56:42;12.90;;;8.13;;
18042;SDS011;9146;48.074;11.968;2023-07-29T03:59:08;10.70;;;7.10;;
18042;SDS011;9146;48.074;11.968;2023-07-29T04:01:35;13.13;;;6.73;;
18042;SDS011;9146;48.074;11.968;2023-07-29T04:04:02;9.50;;;6.83;;
18042;SDS011;9146;48.074;11.968;2023-07-29T04:06:30;11.03;;;6.67;;
18042;SDS011;9146;48.074;11.968;2023-07-29T04:08:57;8.40;;;6.07;;
18042;SDS011;9146;48.074;11.968;2023-07-29T04:11:24;10.07;;;6.13;;
18042;SDS011;9146;48.074;11.968;2023-07-29T04:13:53;9.83;;;6.60;;
18042;SDS011;9146;48.074;11.968;2023-07-29T04:16:20;11.23;;;6.77;;
18042;SDS011;9146;48.074;11.968;2023-07-29T04:18:47;9.37;;;6.27;;
18042;SDS011;9146;48.074;11.968;2023-07-29T04:21:14;7.47;;;6.60;;
18042;SDS011;9146;48.074;11.968;2023-07-29T04:23:41;8.33;;;6.47;;
18042;SDS011;9146;48.074;11.968;2023-07-29T04:26:08;11.77;;;7.97;;
18042;SDS011;9146;48.074;11.968;2023-07-29T04:28:35;7.93;;;5.50;;
18042;SDS011;9146;48.074;11.968;2023-07-29T04:31:03;6.40;;;5.30;;
18042;SDS011;9146;48.074;11.968;2023-07-29T04:33:30;7.23;;;5.70;;
18042;SDS011;9146;48.074;11.968;2023-07-29T04:35:57;6.50;;;5.90;;
18042;SDS011;9146;48.074;11.968;2023-07-29T04:38:30;12.47;;;7.37;;
18042;SDS011;9146;48.074;11.968;2023-07-29T04:40:59;16.30;;;8.63;;
18042;SDS011;9146;48.074;11.968;2023-07-29T04:43:26;13.73;;;8.03;;
18042;SDS011;9146;48.074;11.968;2023-07-29T04:45:54;7.57;;;6.30;;
18042;SDS011;9146;48.074;11.968;2023-07-29T04:48:22;9.97;;;7.00;;
18042;SDS011;9146;48.074;11.968;2023-07-29T04:50:49;12.43;;;8.27;;
18042;SDS011;9146;48.074;11.968;2023-07-29T04:53:16;11.53;;;7.20;;
18042;SDS011;9146;48.074;11.968;2023-07-29T04:55:43;10.63;;;6.97;;
18042;SDS011;9146;48.074;11.968;2023-07-29T04:58:10;8.97;;;6.20;;
18042;SDS011;9146;48.074;11.968;2023-07-29T05:00:37;12.37;;;8.10;;
18042;SDS011;9146;48.074;11.968;2023-07-29T05:03:04;11.10;;;7.03;;
18042;SDS011;9146;48.074;11.968;2023-07-29T05:05:33;8.70;;;6.57;;
18042;SDS011;9146;48.074;11.968;2023-07-29T05:07:59;10.87;;;6.50;;
18042;SDS011;9146;48.074;11.968;2023-07-29T05:10:26;7.00;;;5.17;;
18042;SDS011;9146;48.074;11.968;2023-07-29T05:12:53;6.77;;;5.73;;
18042;SDS011;9146;48.074;11.968;2023-07-29T05:15:20;5.80;;;5.30;;
18042;SDS011;9146;48.074;11.968;2023-07-29T05:17:47;9.07;;;5.57;;
18042;SDS011;9146;48.074;11.968;2023-07-29T05:20:14;5.00;;;4.53;;
18042;SDS011;9146;48.074;11.968;2023-07-29T05:22:42;7.17;;;4.93;;
18042;SDS011;9146;48.074;11.968;2023-07-29T05:25:09;7.23;;;5.47;;
18042;SDS011;9146;48.074;11.968;2023-07-29T05:27:36;5.57;;;4.73;;
18042;SDS011;9146;48.074;11.968;2023-07-29T05:30:03;7.73;;;5.40;;
18042;SDS011;9146;48.074;11.968;2023-07-29T05:32:31;4.70;;;4.30;;
18042;SDS011;9146;48.074;11.968;2023-07-29T05:34:58;4.00;;;3.70;;
18042;SDS011;9146;48.074;11.968;2023-07-29T05:37:25;5.80;;;4.20;;
18042;SDS011;9146;48.074;11.968;2023-07-29T05:39:53;4.53;;;4.13;;
18042;SDS011;9146;48.074;11.968;2023-07-29T05:42:20;4.10;;;3.80;;
18042;SDS011;9146;48.074;11.968;2023-07-29T05:44:47;4.23;;;3.90;;
18042;SDS011;9146;48.074;11.968;2023-07-29T05:47:15;4.33;;;3.93;;
18042;SDS011;9146;48.074;11.968;2023-07-29T05:49:42;3.57;;;3.27;;
18042;SDS011;9146;48.074;11.968;2023-07-29T05:52:09;3.90;;;3.60;;
18042;SDS011;9146;48.074;11.968;2023-07-29T05:54:35;3.57;;;3.30;;
18042;SDS011;9146;48.074;11.968;2023-07-29T05:57:04;4.37;;;4.00;;
18042;SDS011;9146;48.074;11.968;2023-07-29T05:59:32;3.80;;;3.40;;
18042;SDS011;9146;48.074;11.968;2023-07-29T06:02:01;3.90;;;3.60;;
18042;SDS011;9146;48.074;11.968;2023-07-29T06:04:28;2.57;;;2.37;;
18042;SDS011;9146;48.074;11.968;2023-07-29T06:06:55;3.60;;;3.30;;
18042;SDS011;9146;48.074;11.968;2023-07-29T06:09:22;3.27;;;3.03;;
18042;SDS011;9146;48.074;11.968;2023-07-29T06:11:50;3.30;;;3.00;;
18042;SDS011;9146;48.074;11.968;2023-07-29T06:14:18;4.80;;;3.03;;
18042;SDS011;9146;48.074;11.968;2023-07-29T06:16:45;4.83;;;2.97;;
18042;SDS011;9146;48.074;11.968;2023-07-29T06:19:12;3.40;;;3.13;;
18042;SDS011;9146;48.074;11.968;2023-07-29T06:21:39;3.93;;;2.73;;
18042;SDS011;9146;48.074;11.968;2023-07-29T06:24:06;3.40;;;2.97;;
18042;SDS011;9146;48.074;11.968;2023-07-29T06:26:33;3.20;;;3.00;;
18042;SDS011;9146;48.074;11.968;2023-07-29T06:29:00;3.07;;;2.87;;
18042;SDS011;9146;48.074;11.968;2023-07-29T06:31:28;3.50;;;2.50;;
18042;SDS011;9146;48.074;11.968;2023-07-29T06:33:55;3.13;;;2.83;;
18042;SDS011;9146;48.074;11.968;2023-07-29T06:36:22;3.30;;;3.00;;
18042;SDS011;9146;48.074;11.968;2023-07-29T06:38:49;2.60;;;2.40;;
18042;SDS011;9146;48.074;11.968;2023-07-29T06:41:16;9.23;;;3.37;;
18042;SDS011;9146;48.074;11.968;2023-07-29T06:43:43;4.70;;;3.70;;
18042;SDS011;9146;48.074;11.968;2023-07-29T06:46:10;4.43;;;3.93;;
18042;SDS011;9146;48.074;11.968;2023-07-29T06:48:40;4.63;;;4.20;;
18042;SDS011;9146;48.074;11.968;2023-07-29T06:51:07;4.73;;;4.00;;
18042;SDS011;9146;48.074;11.968;2023-07-29T06:53:34;4.70;;;3.80;;
18042;SDS011;9146;48.074;11.968;2023-07-29T06:56:01;3.97;;;3.60;;
18042;SDS011;9146;48.074;11.968;2023-07-29T06:58:28;3.97;;;3.67;;
18042;SDS011;9146;48.074;11.968;2023-07-29T07:00:55;4.43;;;3.43;;
18042;SDS011;9146;48.074;11.968;2023-07-29T07:03:23;4.30;;;3.37;;
18042;SDS011;9146;48.074;11.968;2023-07-29T07:05:52;7.80;;;4.60;;
18042;SDS011;9146;48.074;11.968;2023-07-29T07:08:18;3.43;;;3.13;;
18042;SDS011;9146;48.074;11.968;2023-07-29T07:10:46;3.00;;;2.80;;
18042;SDS011;9146;48.074;11.968;2023-07-29T07:13:13;4.67;;;3.17;;
18042;SDS011;9146;48.074;11.968;2023-07-29T07:15:40;3.50;;;3.20;;
18042;SDS011;9146;48.074;11.968;2023-07-29T07:18:07;3.43;;;2.90;;
18042;SDS011;9146;48.074;11.968;2023-07-29T07:20:34;4.27;;;3.87;;
18042;SDS011;9146;48.074;11.968;2023-07-29T07:23:03;4.13;;;3.27;;
18042;SDS011;9146;48.074;11.968;2023-07-29T07:25:33;4.03;;;3.63;;
18042;SDS011;9146;48.074;11.968;2023-07-29T07:28:01;2.97;;;2.73;;
18042;SDS011;9146;48.074;11.968;2023-07-29T07:30:28;3.50;;;3.20;;
18042;SDS011;9146;48.074;11.968;2023-07-29T07:32:55;3.60;;;3.30;;
18042;SDS011;9146;48.074;11.968;2023-07-29T07:35:22;3.70;;;3.40;;
18042;SDS011;9146;48.074;11.968;2023-07-29T07:37:49;3.90;;;3.57;;
18042;SDS011;9146;48.074;11.968;2023-07-29T07:40:17;3.73;;;3.40;;
18042;SDS011;9146;48.074;11.968;2023-07-29T07:42:44;3.60;;;3.27;;
18042;SDS011;9146;48.074;11.968;2023-07-29T07:45:11;3.80;;;3.40;;
18042;SDS011;9146;48.074;11.968;2023-07-29T07:47:38;3.70;;;3.40;;
18042;SDS011;9146;48.074;11.968;2023-07-29T07:50:05;4.00;;;3.70;;
18042;SDS011;9146;48.074;11.968;2023-07-29T07:52:32;3.00;;;2.80;;
18042;SDS011;9146;48.074;11.968;2023-07-29T07:54:59;3.97;;;3.60;;
18042;SDS011;9146;48.074;11.968;2023-07-29T07:57:28;5.13;;;3.97;;
18042;SDS011;9146;48.074;11.968;2023-07-29T07:59:55;4.10;;;3.60;;
18042;SDS011;9146;48.074;11.968;2023-07-29T08:02:22;3.27;;;2.97;;
18042;SDS011;9146;48.074;11.968;2023-07-29T08:04:49;5.07;;;3.30;;
18042;SDS011;9146;48.074;11.968;2023-07-29T08:07:16;4.00;;;3.70;;
18042;SDS011;9146;48.074;11.968;2023-07-29T08:09:42;3.50;;;3.20;;
18042;SDS011;9146;48.074;11.968;2023-07-29T08:12:10;3.80;;;3.50;;
18042;SDS011;9146;48.074;11.968;2023-07-29T08:14:38;3.47;;;3.17;;
18042;SDS011;9146;48.074;11.968;2023-07-29T08:17:05;3.87;;;3.57;;
18042;SDS011;9146;48.074;11.968;2023-07-29T08:19:32;3.23;;;3.03;;
18042;SDS011;9146;48.074;11.968;2023-07-29T08:22:02;3.60;;;2.80;;
18042;SDS011;9146;48.074;11.968;2023-07-29T08:24:29;4.00;;;3.60;;
18042;SDS011;9146;48.074;11.968;2023-07-29T08:26:56;3.73;;;3.30;;
18042;SDS011;9146;48.074;11.968;2023-07-29T08:29:23;2.67;;;2.47;;
18042;SDS011;9146;48.074;11.968;2023-07-29T08:31:51;2.90;;;2.70;;
18042;SDS011;9146;48.074;11.968;2023-07-29T08:34:20;3.83;;;3.50;;
18042;SDS011;9146;48.074;11.968;2023-07-29T08:36:47;3.90;;;3.60;;
18042;SDS011;9146;48.074;11.968;2023-07-29T08:39:14;3.97;;;3.60;;
18042;SDS011;9146;48.074;11.968;2023-07-29T08:41:42;3.77;;;3.37;;
18042;SDS011;9146;48.074;11.968;2023-07-29T08:44:17;3.63;;;3.33;;
18042;SDS011;9146;48.074;11.968;2023-07-29T08:46:47;3.23;;;3.00;;
18042;SDS011;9146;48.074;11.968;2023-07-29T08:49:16;3.20;;;3.00;;
18042;SDS011;9146;48.074;11.968;2023-07-29T08:51:44;2.93;;;2.63;;
18042;SDS011;9146;48.074;11.968;2023-07-29T08:54:12;3.50;;;3.20;;
18042;SDS011;9146;48.074;11.968;2023-07-29T08:56:40;6.70;;;3.50;;
18042;SDS011;9146;48.074;11.968;2023-07-29T08:59:08;3.03;;;2.83;;
18042;SDS011;9146;48.074;11.968;2023-07-29T09:01:35;3.70;;;3.40;;
18042;SDS011;9146;48.074;11.968;2023-07-29T09:04:03;2.83;;;2.60;;
18042;SDS011;9146;48.074;11.968;2023-07-29T09:06:32;3.43;;;3.13;;
18042;SDS011;9146;48.074;11.968;2023-07-29T09:09:01;3.80;;;3.37;;
18042;SDS011;9146;48.074;11.968;2023-07-29T09:11:28;3.13;;;2.83;;
18042;SDS011;9146;48.074;11.968;2023-07-29T09:13:55;3.50;;;2.70;;
18042;SDS011;9146;48.074;11.968;2023-07-29T09:16:22;3.23;;;2.90;;
18042;SDS011;9146;48.074;11.968;2023-07-29T09:18:50;3.70;;;3.40;;
18042;SDS011;9146;48.074;11.968;2023-07-29T09:21:17;3.87;;;3.40;;
18042;SDS011;9146;48.074;11.968;2023-07-29T09:23:50;2.90;;;2.70;;
18042;SDS011;9146;48.074;11.968;2023-07-29T09:26:21;5.00;;;3.27;;
18042;SDS011;9146;48.074;11.968;2023-07-29T09:28:51;3.07;;;2.87;;
18042;SDS011;9146;48.074;11.968;2023-07-29T09:31:19;3.20;;;2.90;;
18042;SDS011;9146;48.074;11.968;2023-07-29T09:33:46;3.20;;;2.90;;
18042;SDS011;9146;48.074;11.968;2023-07-29T09:36:13;6.70;;;3.10;;
18042;SDS011;9146;48.074;11.968;2023-07-29T09:38:40;2.90;;;2.70;;
18042;SDS011;9146;48.074;11.968;2023-07-29T09:41:09;3.27;;;2.97;;
18042;SDS011;9146;48.074;11.968;2023-07-29T09:43:39;3.53;;;3.10;;
18042;SDS011;9146;48.074;11.968;2023-07-29T09:46:05;3.47;;;3.00;;
18042;SDS011;9146;48.074;11.968;2023-07-29T09:48:33;3.10;;;2.90;;
18042;SDS011;9146;48.074;11.968;2023-07-29T09:51:09;3.33;;;3.10;;
18042;SDS011;9146;48.074;11.968;2023-07-29T09:53:39;3.47;;;2.90;;
18042;SDS011;9146;48.074;11.968;2023-07-29T09:56:08;3.37;;;3.07;;
18042;SDS011;9146;48.074;11.968;2023-07-29T09:58:36;4.70;;;2.60;;
18042;SDS011;9146;48.074;11.968;2023-07-29T10:01:04;2.80;;;2.60;;
18042;SDS011;9146;48.074;11.968;2023-07-29T10:03:31;3.10;;;2.90;;
18042;SDS011;9146;48.074;11.968;2023-07-29T10:06:00;2.70;;;2.50;;
18042;SDS011;9146;48.074;11.968;2023-07-29T10:08:28;2.77;;;2.57;;
18042;SDS011;9146;48.074;11.968;2023-07-29T10:10:57;4.60;;;3.43;;
18042;SDS011;9146;48.074;11.968;2023-07-29T10:13:27;2.87;;;2.67;;
18042;SDS011;9146;48.074;11.968;2023-07-29T10:15:54;2.70;;;2.50;;
18042;SDS011;9146;48.074;11.968;2023-07-29T10:18:22;2.50;;;2.30;;
18042;SDS011;9146;48.074;11.968;2023-07-29T10:20:50;3.70;;;2.87;;
18042;SDS011;9146;48.074;11.968;2023-07-29T10:23:18;3.30;;;3.00;;
18042;SDS011;9146;48.074;11.968;2023-07-29T10:25:49;4.17;;;2.70;;
18042;SDS011;9146;48.074;11.968;2023-07-29T10:28:34;5.10;;;3.50;;
18042;SDS011;9146;48.074;11.968;2023-07-29T10:31:06;3.10;;;2.80;;
18042;SDS011;9146;48.074;11.968;2023-07-29T10:33:34;4.60;;;3.30;;
18042;SDS011;9146;48.074;11.968;2023-07-29T10:36:01;3.30;;;3.10;;
18042;SDS011;9146;48.074;11.968;2023-07-29T10:38:30;4.27;;;2.60;;
18042;SDS011;9146;48.074;11.968;2023-07-29T10:40:59;3.03;;;2.83;;
18042;SDS011;9146;48.074;11.968;2023-07-29T10:43:26;2.90;;;2.70;;
18042;SDS011;9146;48.074;11.968;2023-07-29T10:45:55;2.90;;;2.70;;
18042;SDS011;9146;48.074;11.968;2023-07-29T10:51:24;3.27;;;3.03;;
18042;SDS011;9146;48.074;11.968;2023-07-29T10:53:52;3.03;;;2.83;;
18042;SDS011;9146;48.074;11.968;2023-07-29T10:56:27;3.90;;;3.10;;
18042;SDS011;9146;48.074;11.968;2023-07-29T10:58:56;2.40;;;2.23;;
18042;SDS011;9146;48.074;11.968;2023-07-29T11:01:27;2.90;;;2.70;;
18042;SDS011;9146;48.074;11.968;2023-07-29T11:10:01;3.37;;;3.07;;
18042;SDS011;9146;48.074;11.968;2023-07-29T11:12:33;3.83;;;3.10;;
18042;SDS011;9146;48.074;11.968;2023-07-29T11:15:03;2.80;;;2.60;;
18042;SDS011;9146;48.074;11.968;2023-07-29T11:17:32;3.10;;;2.90;;
18042;SDS011;9146;48.074;11.968;2023-07-29T11:20:00;2.43;;;2.23;;
18042;SDS011;9146;48.074;11.968;2023-07-29T11:22:28;3.50;;;3.20;;
18042;SDS011;9146;48.074;11.968;2023-07-29T11:24:55;3.33;;;3.03;;
18042;SDS011;9146;48.074;11.968;2023-07-29T11:27:22;3.53;;;3.07;;
18042;SDS011;9146;48.074;11.968;2023-07-29T11:29:49;6.60;;;2.77;;
18042;SDS011;9146;48.074;11.968;2023-07-29T11:32:16;3.00;;;2.80;;
18042;SDS011;9146;48.074;11.968;2023-07-29T11:34:44;3.50;;;3.20;;
18042;SDS011;9146;48.074;11.968;2023-07-29T11:37:11;3.60;;;3.30;;
18042;SDS011;9146;48.074;11.968;2023-07-29T11:39:39;3.27;;;2.97;;
18042;SDS011;9146;48.074;11.968;2023-07-29T11:42:07;3.60;;;3.30;;
18042;SDS011;9146;48.074;11.968;2023-07-29T11:44:36;3.40;;;3.10;;
18042;SDS011;9146;48.074;11.968;2023-07-29T11:47:05;3.17;;;2.93;;
18042;SDS011;9146;48.074;11.968;2023-07-29T11:49:32;3.40;;;3.10;;
18042;SDS011;9146;48.074;11.968;2023-07-29T11:52:01;3.63;;;2.80;;
18042;SDS011;9146;48.074;11.968;2023-07-29T11:54:29;3.47;;;3.17;;
18042;SDS011;9146;48.074;11.968;2023-07-29T11:56:56;2.63;;;2.43;;
18042;SDS011;9146;48.074;11.968;2023-07-29T11:59:24;2.70;;;2.50;;
18042;SDS011;9146;48.074;11.968;2023-07-29T12:01:51;2.27;;;2.10;;
18042;SDS011;9146;48.074;11.968;2023-07-29T12:04:19;4.93;;;2.40;;
18042;SDS011;9146;48.074;11.968;2023-07-29T12:06:46;2.53;;;2.20;;
18042;SDS011;9146;48.074;11.968;2023-07-29T12:09:15;2.40;;;2.20;;
18042;SDS011;9146;48.074;11.968;2023-07-29T12:11:42;5.13;;;1.87;;
18042;SDS011;9146;48.074;11.968;2023-07-29T12:14:09;2.30;;;2.10;;
18042;SDS011;9146;48.074;11.968;2023-07-29T12:16:47;2.10;;;1.90;;
18042;SDS011;9146;48.074;11.968;2023-07-29T12:19:16;2.40;;;2.20;;
18042;SDS011;9146;48.074;11.968;2023-07-29T12:21:44;2.83;;;2.50;;
18042;SDS011;9146;48.074;11.968;2023-07-29T12:24:11;2.67;;;2.47;;
18042;SDS011;9146;48.074;11.968;2023-07-29T12:26:40;3.07;;;2.13;;
18042;SDS011;9146;48.074;11.968;2023-07-29T12:29:11;7.73;;;2.30;;
18042;SDS011;9146;48.074;11.968;2023-07-29T12:31:38;2.20;;;2.10;;
18042;SDS011;9146;48.074;11.968;2023-07-29T12:34:05;2.17;;;1.97;;
18042;SDS011;9146;48.074;11.968;2023-07-29T12:36:42;2.63;;;2.33;;
18042;SDS011;9146;48.074;11.968;2023-07-29T12:39:20;2.57;;;2.37;;
18042;SDS011;9146;48.074;11.968;2023-07-29T12:41:50;3.50;;;2.70;;
18042;SDS011;9146;48.074;11.968;2023-07-29T12:44:22;2.70;;;2.50;;
18042;SDS011;9146;48.074;11.968;2023-07-29T12:46:49;2.80;;;2.60;;
18042;SDS011;9146;48.074;11.968;2023-07-29T12:49:17;2.37;;;2.10;;
18042;SDS011;9146;48.074;11.968;2023-07-29T12:51:45;2.67;;;2.47;;
18042;SDS011;9146;48.074;11.968;2023-07-29T12:54:12;3.20;;;2.10;;
18042;SDS011;9146;48.074;11.968;2023-07-29T12:56:39;2.77;;;2.57;;
18042;SDS011;9146;48.074;11.968;2023-07-29T12:59:07;3.00;;;2.70;;
18042;SDS011;9146;48.074;11.968;2023-07-29T13:01:34;2.67;;;2.47;;
18042;SDS011;9146;48.074;11.968;2023-07-29T13:04:01;3.10;;;2.80;;
18042;SDS011;9146;48.074;11.968;2023-07-29T13:06:28;2.90;;;2.70;;
18042;SDS011;9146;48.074;11.968;2023-07-29T13:08:55;2.27;;;2.00;;
18042;SDS011;9146;48.074;11.968;2023-07-29T13:11:22;4.07;;;2.43;;
18042;SDS011;9146;48.074;11.968;2023-07-29T13:13:49;3.03;;;2.50;;
18042;SDS011;9146;48.074;11.968;2023-07-29T13:16:17;2.80;;;2.60;;
18042;SDS011;9146;48.074;11.968;2023-07-29T13:18:44;3.60;;;3.23;;
18042;SDS011;9146;48.074;11.968;2023-07-29T13:21:11;3.00;;;2.77;;
18042;SDS011;9146;48.074;11.968;2023-07-29T13:23:38;2.97;;;2.77;;
18042;SDS011;9146;48.074;11.968;2023-07-29T13:26:05;3.77;;;2.57;;
18042;SDS011;9146;48.074;11.968;2023-07-29T13:28:33;3.60;;;3.03;;
18042;SDS011;9146;48.074;11.968;2023-07-29T13:31:00;3.70;;;2.43;;
18042;SDS011;9146;48.074;11.968;2023-07-29T13:33:29;5.03;;;2.57;;
18042;SDS011;9146;48.074;11.968;2023-07-29T13:35:59;2.83;;;2.63;;
18042;SDS011;9146;48.074;11.968;2023-07-29T13:38:27;2.57;;;2.37;;
18042;SDS011;9146;48.074;11.968;2023-07-29T13:40:54;3.63;;;2.33;;
18042;SDS011;9146;48.074;11.968;2023-07-29T13:43:21;3.20;;;2.90;;
18042;SDS011;9146;48.074;11.968;2023-07-29T13:45:48;12.23;;;4.10;;
18042;SDS011;9146;48.074;11.968;2023-07-29T13:48:15;8.53;;;3.77;;
18042;SDS011;9146;48.074;11.968;2023-07-29T13:50:43;4.60;;;4.10;;
18042;SDS011;9146;48.074;11.968;2023-07-29T13:53:10;8.07;;;5.37;;
18042;SDS011;9146;48.074;11.968;2023-07-29T13:55:37;10.17;;;5.37;;
18042;SDS011;9146;48.074;11.968;2023-07-29T13:58:04;8.03;;;6.27;;
18042;SDS011;9146;48.074;11.968;2023-07-29T14:00:31;8.90;;;6.10;;
18042;SDS011;9146;48.074;11.968;2023-07-29T14:02:59;6.10;;;5.37;;
18042;SDS011;9146;48.074;11.968;2023-07-29T14:05:25;10.87;;;6.33;;
18042;SDS011;9146;48.074;11.968;2023-07-29T14:07:54;6.97;;;5.50;;
18042;SDS011;9146;48.074;11.968;2023-07-29T14:10:21;7.90;;;5.60;;
18042;SDS011;9146;48.074;11.968;2023-07-29T14:12:48;7.30;;;6.07;;
18042;SDS011;9146;48.074;11.968;2023-07-29T14:15:15;6.33;;;5.73;;
18042;SDS011;9146;48.074;11.968;2023-07-29T14:17:42;10.20;;;6.70;;
18042;SDS011;9146;48.074;11.968;2023-07-29T14:20:09;6.30;;;5.63;;
18042;SDS011;9146;48.074;11.968;2023-07-29T14:22:37;5.73;;;5.10;;
18042;SDS011;9146;48.074;11.968;2023-07-29T14:25:06;4.80;;;4.40;;
18042;SDS011;9146;48.074;11.968;2023-07-29T14:27:33;4.90;;;4.40;;
18042;SDS011;9146;48.074;11.968;2023-07-29T14:30:00;3.97;;;3.67;;
18042;SDS011;9146;48.074;11.968;2023-07-29T14:32:27;6.07;;;4.47;;
18042;SDS011;9146;48.074;11.968;2023-07-29T14:34:54;4.90;;;4.37;;
18042;SDS011;9146;48.074;11.968;2023-07-29T14:37:21;4.43;;;3.97;;
18042;SDS011;9146;48.074;11.968;2023-07-29T14:39:48;4.47;;;4.07;;
18042;SDS011;9146;48.074;11.968;2023-07-29T14:42:17;6.40;;;4.97;;
18042;SDS011;9146;48.074;11.968;2023-07-29T14:44:44;4.43;;;4.03;;
18042;SDS011;9146;48.074;11.968;2023-07-29T14:47:10;5.50;;;4.53;;
18042;SDS011;9146;48.074;11.968;2023-07-29T14:49:37;5.30;;;4.77;;
18042;SDS011;9146;48.074;11.968;2023-07-29T14:52:05;4.20;;;3.90;;
18042;SDS011;9146;48.074;11.968;2023-07-29T14:54:32;4.40;;;3.90;;
18042;SDS011;9146;48.074;11.968;2023-07-29T14:56:59;4.80;;;4.37;;
18042;SDS011;9146;48.074;11.968;2023-07-29T14:59:28;5.57;;;4.13;;
18042;SDS011;9146;48.074;11.968;2023-07-29T15:01:55;4.97;;;4.50;;